Time;durP1;ratioP1;P1;durP2;ratioP2;P2;SDS_P1;SDS_P2;PMS_P1;PMS_P2;Temp;Humidity;BMP_temperature;BMP_pressure;BME280_temperature;BME280_humidity;BME280_pressure;Samples;Min_cycle;Max_cycle;Signal;HPM_P1;HPM_P2
2022/12/03 00:03:41;;;;;;;54.83;24.67;;;;;;;-145.68;100.00;63218.00;10458528;28;20290;-75
2022/12/03 00:08:41;;;;;;;55.00;25.27;;;;;;;-145.68;100.00;63218.00;10457928;28;20538;-75
2022/12/03 00:13:41;;;;;;;55.53;26.53;;;;;;;-145.68;100.00;63218.00;10457851;28;20192;-75
2022/12/03 00:18:42;;;;;;;58.60;25.70;;;;;;;-145.68;100.00;63218.00;10457829;28;20200;-75
2022/12/03 00:23:42;;;;;;;55.77;25.50;;;;;;;-145.68;100.00;63218.00;10448745;28;20244;-75
2022/12/03 00:28:43;;;;;;;59.77;25.13;;;;;;;-145.68;100.00;63218.00;10416001;28;20261;-75
2022/12/03 00:33:43;;;;;;;59.33;26.87;;;;;;;-145.68;100.00;63218.00;10414886;28;20193;-75
2022/12/03 00:38:44;;;;;;;63.10;28.23;;;;;;;-145.68;100.00;63218.00;10415315;28;20212;-75
2022/12/03 00:43:44;;;;;;;55.13;24.90;;;;;;;-145.68;100.00;63218.00;10414788;28;20680;-75
2022/12/03 00:48:45;;;;;;;57.57;26.37;;;;;;;-145.68;100.00;63218.00;10415376;28;20726;-75
2022/12/03 00:53:46;;;;;;;57.80;27.27;;;;;;;-145.68;100.00;63218.00;10396339;28;20196;-75
2022/12/03 00:58:47;;;;;;;58.60;27.00;;;;;;;-145.68;100.00;63218.00;10414763;28;20205;-75
2022/12/03 01:03:47;;;;;;;62.27;26.33;;;;;;;-145.68;100.00;63218.00;10395630;28;20198;-75
2022/12/03 01:08:48;;;;;;;53.37;25.03;;;;;;;-145.68;100.00;63218.00;10396073;28;20568;-75
2022/12/03 01:13:48;;;;;;;59.00;25.27;;;;;;;-145.68;100.00;63218.00;10396245;28;20193;-75
2022/12/03 01:18:51;;;;;;;61.60;26.33;;;;;;;-145.68;100.00;63218.00;10413667;28;20199;-75
2022/12/03 01:23:51;;;;;;;52.43;24.37;;;;;;;-145.68;100.00;63218.00;10404786;28;20239;-75
2022/12/03 01:28:52;;;;;;;61.60;26.40;;;;;;;-145.68;100.00;63218.00;10454530;28;20560;-75
2022/12/03 01:33:52;;;;;;;56.30;25.67;;;;;;;-145.68;100.00;63218.00;10453726;28;20282;-75
2022/12/03 01:38:52;;;;;;;59.40;25.63;;;;;;;-145.68;100.00;63218.00;10454020;28;20211;-75
2022/12/03 01:43:53;;;;;;;54.33;24.70;;;;;;;-145.68;100.00;63218.00;10453735;28;20271;-75
2022/12/03 01:48:55;;;;;;;52.17;23.97;;;;;;;-145.68;100.00;63218.00;10436148;28;20699;-75
2022/12/03 01:53:55;;;;;;;56.90;25.63;;;;;;;-145.68;100.00;63218.00;10452327;28;20191;-75
2022/12/03 01:58:55;;;;;;;56.10;24.17;;;;;;;-145.68;100.00;63218.00;10434883;28;20199;-75
2022/12/03 02:03:56;;;;;;;53.77;24.70;;;;;;;-145.68;100.00;63218.00;10452410;28;20277;-75
2022/12/03 02:08:59;;;;;;;57.63;24.73;;;;;;;-145.68;100.00;63218.00;10451247;28;20266;-75
2022/12/03 02:14:02;;;;;;;58.87;25.70;;;;;;;-145.68;100.00;63218.00;10435245;28;20275;-75
2022/12/03 02:19:03;;;;;;;58.60;24.67;;;;;;;-145.68;100.00;63218.00;10418079;28;20766;-75
2022/12/03 02:24:16;;;;;;;66.23;26.97;;;;;;;-145.68;100.00;63218.00;10451780;28;20227;-74
2022/12/03 02:29:16;;;;;;;63.43;26.13;;;;;;;-145.68;100.00;63218.00;10434510;28;20196;-74
2022/12/03 02:34:55;;;;;;;56.53;26.00;;;;;;;-145.68;100.00;63218.00;10451340;28;20207;-75
2022/12/03 02:39:57;;;;;;;59.87;24.80;;;;;;;-145.68;100.00;63218.00;10244462;28;20231;-75
2022/12/03 02:45:01;;;;;;;56.07;24.00;;;;;;;-145.68;100.00;63218.00;10405109;28;20215;-75
2022/12/03 02:50:02;;;;;;;55.37;25.63;;;;;;;-145.68;100.00;63218.00;10451032;28;20188;-75
2022/12/03 02:55:17;;;;;;;62.20;25.87;;;;;;;-145.68;100.00;63218.00;10413107;28;20212;-75
2022/12/03 03:00:18;;;;;;;53.20;24.00;;;;;;;-145.68;100.00;63218.00;10451667;28;20593;-75
2022/12/03 03:05:20;;;;;;;55.77;24.77;;;;;;;-145.68;100.00;63218.00;10432861;28;20191;-75
2022/12/03 03:10:22;;;;;;;52.80;24.57;;;;;;;-145.68;100.00;63218.00;10416832;28;20245;-74
2022/12/03 03:15:23;;;;;;;60.53;25.43;;;;;;;-145.68;100.00;63218.00;10416523;28;20195;-74
2022/12/03 03:20:23;;;;;;;55.77;24.20;;;;;;;-145.68;100.00;63218.00;10432382;28;20234;-75
2022/12/03 03:25:24;;;;;;;55.07;25.13;;;;;;;-145.68;100.00;63218.00;10453484;28;20262;-75
2022/12/03 03:30:25;;;;;;;59.37;25.47;;;;;;;-145.68;100.00;63218.00;10446333;28;20676;-75
2022/12/03 03:35:26;;;;;;;59.80;25.10;;;;;;;-145.68;100.00;63218.00;10446058;28;20188;-75
2022/12/03 03:40:27;;;;;;;56.40;24.17;;;;;;;-145.68;100.00;63218.00;10446142;28;20311;-75
2022/12/03 03:45:27;;;;;;;62.60;26.63;;;;;;;-145.68;100.00;63218.00;10429465;28;20187;-75
2022/12/03 03:50:30;;;;;;;61.17;25.80;;;;;;;-145.68;100.00;63218.00;10463533;28;20188;-74
2022/12/03 03:55:30;;;;;;;68.37;28.23;;;;;;;-145.68;100.00;63218.00;10445474;28;20235;-74
2022/12/03 04:00:31;;;;;;;67.30;27.57;;;;;;;-145.68;100.00;63218.00;10446198;28;20251;-74
2022/12/03 04:05:31;;;;;;;71.27;28.43;;;;;;;-145.68;100.00;63218.00;10440550;28;20199;-75
2022/12/03 04:15:51;;;;;;;66.33;26.27;;;;;;;-145.68;100.00;63218.00;10444067;28;20191;-74
2022/12/03 04:22:38;;;;;;;60.10;25.60;;;;;;;-145.68;100.00;63218.00;10459851;28;20233;-75
2022/12/03 04:36:50;;;;;;;58.60;25.43;;;;;;;-145.68;100.00;63218.00;10456531;28;20211;-75
2022/12/03 04:41:50;;;;;;;60.13;25.57;;;;;;;-145.68;100.00;63218.00;10435208;28;20220;-75
2022/12/03 04:46:50;;;;;;;64.17;26.53;;;;;;;-145.68;100.00;63218.00;10434763;28;20196;-75
2022/12/03 04:51:51;;;;;;;63.37;24.77;;;;;;;-145.68;100.00;63218.00;10452141;28;20262;-75
2022/12/03 04:56:51;;;;;;;66.47;26.80;;;;;;;-145.68;100.00;63218.00;10452366;28;20199;-75
2022/12/03 05:01:52;;;;;;;63.33;26.97;;;;;;;-145.68;100.00;63218.00;10441268;28;20335;-75
2022/12/03 05:06:52;;;;;;;61.40;26.07;;;;;;;-145.68;100.00;63218.00;10455735;28;20660;-75
2022/12/03 05:11:52;;;;;;;64.53;26.83;;;;;;;-145.68;100.00;63218.00;10455544;28;20192;-75
2022/12/03 05:16:53;;;;;;;67.47;26.73;;;;;;;-145.68;100.00;63218.00;10437450;28;20188;-74
2022/12/03 05:21:53;;;;;;;75.67;28.77;;;;;;;-145.68;100.00;63218.00;10454901;28;20306;-75
2022/12/03 05:26:53;;;;;;;60.47;26.23;;;;;;;-145.68;100.00;63218.00;10437047;28;20239;-75
2022/12/03 05:31:54;;;;;;;62.33;25.97;;;;;;;-145.68;100.00;63218.00;10454684;28;20698;-74
2022/12/03 05:36:54;;;;;;;65.83;26.63;;;;;;;-145.68;100.00;63218.00;10454115;28;20625;-75
2022/12/03 05:47:14;;;;;;;63.30;25.30;;;;;;;-145.68;100.00;63218.00;10453797;28;20800;-75
2022/12/03 05:52:14;;;;;;;58.10;24.70;;;;;;;-145.68;100.00;63218.00;10453571;28;20191;-75
2022/12/03 05:57:14;;;;;;;56.07;24.40;;;;;;;-145.68;100.00;63218.00;10453852;28;20200;-74
2022/12/03 06:02:15;;;;;;;57.33;27.30;;;;;;;-145.68;100.00;63218.00;10453179;28;20219;-74
2022/12/03 06:07:15;;;;;;;51.50;23.10;;;;;;;-145.68;100.00;63218.00;10453374;28;20192;-76
2022/12/03 06:12:15;;;;;;;51.73;22.20;;;;;;;-145.68;100.00;63218.00;10452790;28;20194;-75
2022/12/03 06:17:16;;;;;;;47.23;21.07;;;;;;;-145.68;100.00;63218.00;10435567;28;20207;-74
2022/12/03 06:22:17;;;;;;;47.30;21.57;;;;;;;-145.68;100.00;63218.00;10452242;28;20675;-75
2022/12/03 06:27:17;;;;;;;46.20;20.80;;;;;;;-145.68;100.00;63218.00;10452499;28;20365;-74
2022/12/03 06:32:17;;;;;;;43.67;20.70;;;;;;;-145.68;100.00;63218.00;10452383;28;20533;-75
2022/12/03 06:37:18;;;;;;;45.50;22.07;;;;;;;-145.68;100.00;63218.00;10451973;28;20203;-75
2022/12/03 06:42:18;;;;;;;50.03;22.57;;;;;;;-145.68;100.00;63218.00;10427779;28;20212;-75
2022/12/03 06:47:19;;;;;;;49.00;21.67;;;;;;;-145.68;100.00;63218.00;10410704;28;20262;-75
2022/12/03 06:52:19;;;;;;;55.20;23.10;;;;;;;-145.68;100.00;63218.00;10410456;28;20201;-75
2022/12/03 06:57:19;;;;;;;62.47;25.60;;;;;;;-145.68;100.00;63218.00;10410014;28;20192;-75
2022/12/03 07:02:20;;;;;;;59.30;25.03;;;;;;;-145.68;100.00;63218.00;10409421;28;20712;-75
2022/12/03 07:07:20;;;;;;;62.47;26.00;;;;;;;-145.68;100.00;63218.00;10420700;28;20529;-76
2022/12/03 07:12:21;;;;;;;72.47;27.93;;;;;;;-145.68;100.00;63218.00;10421028;28;20196;-75
2022/12/03 07:17:21;;;;;;;64.97;25.30;;;;;;;-145.68;100.00;63218.00;10441973;28;20196;-75
2022/12/03 07:22:21;;;;;;;70.57;28.20;;;;;;;-145.68;100.00;63218.00;10450565;28;20324;-75
2022/12/03 07:27:22;;;;;;;67.70;27.40;;;;;;;-145.68;100.00;63218.00;10450888;28;20240;-75
2022/12/03 07:32:22;;;;;;;74.43;28.20;;;;;;;-145.68;100.00;63218.00;10450719;28;20184;-75
2022/12/03 07:37:23;;;;;;;70.33;28.23;;;;;;;-145.68;100.00;63218.00;10449986;28;20204;-75
2022/12/03 07:42:24;;;;;;;75.73;28.37;;;;;;;-145.68;100.00;63218.00;10432458;28;20219;-76
2022/12/03 07:47:24;;;;;;;74.93;29.83;;;;;;;-145.68;100.00;63218.00;10450520;28;20188;-76
2022/12/03 07:52:24;;;;;;;75.57;28.67;;;;;;;-145.68;100.00;63218.00;10445073;28;20187;-75
2022/12/03 07:57:25;;;;;;;81.47;28.17;;;;;;;-145.68;100.00;63218.00;10447681;28;20241;-76
2022/12/03 08:02:25;;;;;;;67.63;28.70;;;;;;;-145.68;100.00;63218.00;10447343;28;20223;-75
2022/12/03 08:07:26;;;;;;;69.70;26.87;;;;;;;-145.68;100.00;63218.00;10444932;28;20684;-75
2022/12/03 08:12:38;;;;;;;67.97;28.17;;;;;;;-145.68;100.00;63218.00;10450465;28;20211;-76
2022/12/03 08:17:39;;;;;;;70.73;28.53;;;;;;;-145.68;100.00;63218.00;10456236;28;20241;-76
2022/12/03 08:22:41;;;;;;;66.83;26.90;;;;;;;-145.68;100.00;63218.00;10433729;28;20212;-75
2022/12/03 08:27:41;;;;;;;70.17;28.83;;;;;;;-145.68;100.00;63218.00;10441245;28;20232;-75
2022/12/03 08:32:41;;;;;;;62.20;25.27;;;;;;;-145.68;100.00;63218.00;10436928;28;20651;-75
2022/12/03 08:37:42;;;;;;;67.83;26.63;;;;;;;-145.68;100.00;63218.00;10432011;28;20216;-75
2022/12/03 08:42:42;;;;;;;55.67;25.67;;;;;;;-145.68;100.00;63218.00;10414300;28;20698;-75
2022/12/03 08:47:43;;;;;;;61.40;28.00;;;;;;;-145.68;100.00;63218.00;10430507;28;20192;-75
2022/12/03 08:52:43;;;;;;;69.20;31.13;;;;;;;-145.68;100.00;63218.00;10453570;28;20184;-76
2022/12/03 08:57:43;;;;;;;55.60;25.93;;;;;;;-145.68;100.00;63218.00;10435681;28;20330;-75
2022/12/03 09:02:47;;;;;;;56.30;28.27;;;;;;;-145.68;100.00;63218.00;10426540;28;20769;-75
2022/12/03 09:07:47;;;;;;;58.33;24.03;;;;;;;-145.68;100.00;63218.00;10450989;28;20220;-75
2022/12/03 09:12:48;;;;;;;51.30;23.83;;;;;;;-145.68;100.00;63218.00;10451518;28;20193;-76
2022/12/03 09:17:48;;;;;;;50.43;23.10;;;;;;;-145.68;100.00;63218.00;10433034;28;20668;-75
2022/12/03 09:22:49;;;;;;;44.23;22.50;;;;;;;-145.68;100.00;63218.00;10431912;28;20219;-76
2022/12/03 09:27:49;;;;;;;45.47;22.07;;;;;;;-145.68;100.00;63218.00;10411721;28;20215;-75
2022/12/03 09:32:49;;;;;;;52.97;22.17;;;;;;;-145.68;100.00;63218.00;10409377;28;20654;-76
2022/12/03 09:37:50;;;;;;;55.60;27.70;;;;;;;-145.68;100.00;63218.00;10408512;28;20219;-76
2022/12/03 09:42:51;;;;;;;52.83;23.40;;;;;;;-145.68;100.00;63218.00;10408186;28;20573;-75
2022/12/03 09:47:51;;;;;;;55.83;23.93;;;;;;;-145.68;100.00;63218.00;10392424;28;20201;-76
2022/12/03 09:52:56;;;;;;;46.97;21.97;;;;;;;-145.68;100.00;63218.00;10399581;28;20273;-76
2022/12/03 09:57:57;;;;;;;48.73;23.57;;;;;;;-145.68;100.00;63218.00;10447988;28;20188;-76
2022/12/03 10:03:01;;;;;;;50.10;23.53;;;;;;;-145.68;100.00;63218.00;10449664;28;20222;-76
2022/12/03 10:08:07;;;;;;;47.93;22.93;;;;;;;-145.68;100.00;63218.00;10449729;28;20292;-76
2022/12/03 10:13:12;;;;;;;48.13;22.23;;;;;;;-145.68;100.00;63218.00;10431205;28;20242;-76
2022/12/03 10:18:21;;;;;;;53.37;24.37;;;;;;;-145.68;100.00;63218.00;10448605;28;20199;-76
2022/12/03 10:23:28;;;;;;;46.67;22.63;;;;;;;-145.68;100.00;63218.00;10449217;28;20329;-76
2022/12/03 10:28:36;;;;;;;50.47;22.73;;;;;;;-145.68;100.00;63218.00;10448764;28;20560;-76
2022/12/03 10:33:40;;;;;;;46.07;23.30;;;;;;;-145.68;100.00;63218.00;10429482;28;20280;-77
2022/12/03 10:38:41;;;;;;;43.03;21.07;;;;;;;-145.68;100.00;63218.00;10430211;28;20207;-77
2022/12/03 10:43:42;;;;;;;44.10;22.13;;;;;;;-145.68;100.00;63218.00;10430005;28;20699;-77
2022/12/03 10:48:42;;;;;;;41.40;20.13;;;;;;;-145.68;100.00;63218.00;10440946;28;20317;-76
2022/12/03 10:53:43;;;;;;;45.57;21.33;;;;;;;-145.68;100.00;63218.00;10405207;28;20300;-76
2022/12/03 10:58:43;;;;;;;44.10;20.93;;;;;;;-145.68;100.00;63218.00;10442302;28;20556;-76
2022/12/03 11:03:44;;;;;;;42.93;21.37;;;;;;;-145.68;100.00;63218.00;10425939;28;20219;-76
2022/12/03 11:08:47;;;;;;;40.30;19.67;;;;;;;-145.68;100.00;63218.00;10429151;28;20284;-76
2022/12/03 11:14:01;;;;;;;41.17;20.80;;;;;;;-145.68;100.00;63218.00;10446082;28;20199;-76
2022/12/03 11:19:02;;;;;;;46.63;22.87;;;;;;;-145.68;100.00;63218.00;10428629;28;20258;-76
2022/12/03 11:24:04;;;;;;;64.83;32.87;;;;;;;-145.68;100.00;63218.00;10430668;28;20366;-76
2022/12/03 11:29:12;;;;;;;51.67;26.33;;;;;;;-145.68;100.00;63218.00;10430667;28;20200;-75
2022/12/03 11:34:19;;;;;;;57.17;28.73;;;;;;;-145.68;100.00;63218.00;10447035;28;20527;-76
2022/12/03 11:39:48;;;;;;;54.53;27.30;;;;;;;-145.68;100.00;63218.00;10397115;28;20251;-76
2022/12/03 11:45:08;;;;;;;48.30;26.20;;;;;;;-145.68;100.00;63218.00;10423718;28;20234;-77
2022/12/03 11:50:28;;;;;;;51.50;24.47;;;;;;;-145.68;100.00;63218.00;10437335;28;20660;-76
2022/12/03 11:55:37;;;;;;;40.23;20.23;;;;;;;-145.68;100.00;63218.00;10412684;28;20253;-76
2022/12/03 12:00:37;;;;;;;43.53;23.63;;;;;;;-145.68;100.00;63218.00;10437954;28;20630;-75
2022/12/03 12:05:37;;;;;;;47.80;23.13;;;;;;;-145.68;100.00;63218.00;10437753;28;20180;-76
2022/12/03 12:10:47;;;;;;;53.13;23.83;;;;;;;-145.68;100.00;63218.00;10455423;28;20184;-76
2022/12/03 12:15:47;;;;;;;42.07;23.23;;;;;;;-145.68;100.00;63218.00;10437136;28;20739;-76
2022/12/03 12:20:47;;;;;;;39.27;19.17;;;;;;;-145.68;100.00;63218.00;10437515;28;20216;-76
2022/12/03 12:25:48;;;;;;;16.27;9.83;;;;;;;-145.68;100.00;63218.00;10454316;28;20289;-75
2022/12/03 12:30:48;;;;;;;14.47;8.47;;;;;;;-145.68;100.00;63218.00;10415037;28;20199;-75
2022/12/03 12:35:49;;;;;;;14.63;7.77;;;;;;;-145.68;100.00;63218.00;10395238;28;20200;-76
2022/12/03 12:40:49;;;;;;;12.97;8.20;;;;;;;-145.68;100.00;63218.00;10395646;28;20220;-77
2022/12/03 12:45:53;;;;;;;18.23;9.67;;;;;;;-145.68;100.00;63218.00;10438957;28;20254;-76
2022/12/03 12:51:07;;;;;;;17.40;9.10;;;;;;;-145.68;100.00;63218.00;10453778;28;20192;-77
2022/12/03 12:56:24;;;;;;;14.87;7.97;;;;;;;-145.68;100.00;63218.00;10453463;28;20188;-77
2022/12/03 13:01:28;;;;;;;16.27;8.67;;;;;;;-145.68;100.00;63218.00;10452129;28;20227;-77
2022/12/03 13:06:30;;;;;;;14.23;8.43;;;;;;;-145.68;100.00;63218.00;10453489;28;20216;-76
2022/12/03 13:11:40;;;;;;;16.97;10.23;;;;;;;-145.68;100.00;63218.00;10453120;28;20727;-76
2022/12/03 13:16:41;;;;;;;17.67;9.57;;;;;;;-145.68;100.00;63218.00;10435009;28;20559;-76
2022/12/03 13:21:43;;;;;;;18.27;9.93;;;;;;;-145.68;100.00;63218.00;10453136;28;20223;-76
2022/12/03 13:26:43;;;;;;;16.70;9.47;;;;;;;-145.68;100.00;63218.00;10434292;28;20601;-76
2022/12/03 13:31:49;;;;;;;19.20;9.53;;;;;;;-145.68;100.00;63218.00;10452264;28;20191;-75
2022/12/03 13:36:50;;;;;;;18.53;14.30;;;;;;;-145.68;100.00;63218.00;10434608;28;20219;-76
2022/12/03 13:47:14;;;;;;;12.53;8.17;;;;;;;-145.68;100.00;63218.00;10451644;28;20195;-76
2022/12/03 13:52:18;;;;;;;14.60;8.83;;;;;;;-145.68;100.00;63218.00;10451823;28;20191;-76
2022/12/03 13:57:19;;;;;;;14.70;8.97;;;;;;;-145.68;100.00;63218.00;10433375;28;20206;-76
2022/12/03 14:02:19;;;;;;;13.53;8.50;;;;;;;-145.68;100.00;63218.00;10450886;28;20601;-76
2022/12/03 14:07:19;;;;;;;15.57;9.60;;;;;;;-145.68;100.00;63218.00;10450184;28;20199;-76
2022/12/03 14:12:26;;;;;;;15.53;9.33;;;;;;;-145.68;100.00;63218.00;10449685;28;20199;-76
2022/12/03 14:17:26;;;;;;;18.07;10.33;;;;;;;-145.68;100.00;63218.00;10452381;28;20191;-76
2022/12/03 14:22:27;;;;;;;17.63;9.63;;;;;;;-145.68;100.00;63218.00;10452235;28;20223;-76
2022/12/03 14:27:27;;;;;;;14.80;9.70;;;;;;;-145.68;100.00;63218.00;10450056;28;20246;-76
2022/12/03 14:32:28;;;;;;;18.37;10.17;;;;;;;-145.68;100.00;63218.00;10430082;28;20181;-76
2022/12/03 14:37:28;;;;;;;24.13;14.20;;;;;;;-145.68;100.00;63218.00;10426840;28;20579;-76
2022/12/03 14:42:29;;;;;;;18.80;10.60;;;;;;;-145.68;100.00;63218.00;10428889;28;20216;-76
2022/12/03 14:47:29;;;;;;;16.37;9.80;;;;;;;-145.68;100.00;63218.00;10432086;28;20189;-76
2022/12/03 14:52:29;;;;;;;17.10;10.40;;;;;;;-145.68;100.00;63218.00;10422965;28;20188;-76
2022/12/03 14:57:30;;;;;;;18.67;10.33;;;;;;;-145.68;100.00;63218.00;10415084;28;20201;-76
2022/12/03 15:02:30;;;;;;;15.10;10.00;;;;;;;-145.68;100.00;63218.00;10422673;28;20223;-76
2022/12/03 15:07:31;;;;;;;14.03;9.23;;;;;;;-145.68;100.00;63218.00;10410211;28;20200;-76
2022/12/03 15:12:31;;;;;;;12.30;7.73;;;;;;;-145.68;100.00;63218.00;10391817;28;20199;-76
2022/12/03 15:17:31;;;;;;;16.50;9.07;;;;;;;-145.68;100.00;63218.00;10409976;28;20200;-76
2022/12/03 15:22:32;;;;;;;15.70;8.27;;;;;;;-145.68;100.00;63218.00;10409372;28;20227;-76
2022/12/03 15:27:32;;;;;;;14.50;8.53;;;;;;;-145.68;100.00;63218.00;10409029;28;20236;-76
2022/12/03 15:32:33;;;;;;;14.70;10.10;;;;;;;-145.68;100.00;63218.00;10409732;28;20196;-76
2022/12/03 15:37:33;;;;;;;18.30;11.03;;;;;;;-145.68;100.00;63218.00;10408949;28;20251;-76
2022/12/03 15:42:33;;;;;;;16.33;10.43;;;;;;;-145.68;100.00;63218.00;10409206;28;20688;-76
2022/12/03 15:47:34;;;;;;;16.30;10.67;;;;;;;-145.68;100.00;63218.00;10404183;28;20275;-77
2022/12/03 15:52:34;;;;;;;19.37;10.63;;;;;;;-145.68;100.00;63218.00;10410423;28;20187;-76
2022/12/03 15:57:34;;;;;;;18.30;10.30;;;;;;;-145.68;100.00;63218.00;10408233;28;20279;-76
2022/12/03 16:02:35;;;;;;;17.33;11.37;;;;;;;-145.68;100.00;63218.00;10425634;28;20634;-76
2022/12/03 16:07:35;;;;;;;22.60;11.37;;;;;;;-145.68;100.00;63218.00;10393230;28;20836;-76
2022/12/03 16:12:36;;;;;;;18.63;11.20;;;;;;;-145.68;100.00;63218.00;10436437;28;20191;-76
2022/12/03 16:17:36;;;;;;;15.60;10.33;;;;;;;-145.68;100.00;63218.00;10449682;28;20188;-76
2022/12/03 16:22:37;;;;;;;16.17;11.43;;;;;;;-145.68;100.00;63218.00;10449517;28;20340;-76
2022/12/03 16:27:37;;;;;;;18.27;11.17;;;;;;;-145.68;100.00;63218.00;10431942;28;20230;-76
2022/12/03 16:32:38;;;;;;;18.80;9.87;;;;;;;-145.68;100.00;63218.00;10433666;28;20184;-76
2022/12/03 16:37:38;;;;;;;18.10;11.17;;;;;;;-145.68;100.00;63218.00;10487157;28;20226;-76
2022/12/03 16:42:39;;;;;;;14.83;9.83;;;;;;;-145.68;100.00;63218.00;10494227;28;20279;-76
2022/12/03 16:47:39;;;;;;;18.77;10.03;;;;;;;-145.68;100.00;63218.00;10494540;28;20202;-77
2022/12/03 16:52:40;;;;;;;15.13;9.73;;;;;;;-145.68;100.00;63218.00;10477167;28;20187;-76
2022/12/03 16:57:40;;;;;;;18.03;11.43;;;;;;;-145.68;100.00;63218.00;10478392;28;20187;-76
2022/12/03 17:02:41;;;;;;;21.43;12.30;;;;;;;-145.68;100.00;63218.00;10495927;28;20279;-75
2022/12/03 17:07:41;;;;;;;20.83;11.87;;;;;;;-145.68;100.00;63218.00;10470758;28;20187;-76
2022/12/03 17:12:42;;;;;;;17.87;11.03;;;;;;;-145.68;100.00;63218.00;10427792;28;20180;-77
2022/12/03 17:17:42;;;;;;;22.77;12.30;;;;;;;-145.68;100.00;63218.00;10411683;28;20195;-76
2022/12/03 17:22:43;;;;;;;15.37;8.57;;;;;;;-145.68;100.00;63218.00;10422921;28;20330;-77
2022/12/03 17:28:11;;;;;;;20.00;10.07;;;;;;;-145.68;100.00;63218.00;10394727;28;20203;-77
2022/12/03 17:33:13;;;;;;;16.30;10.20;;;;;;;-145.68;100.00;63218.00;10396479;28;20205;-76
2022/12/03 17:38:14;;;;;;;16.53;10.33;;;;;;;-145.68;100.00;63218.00;10412847;28;20261;-76
2022/12/03 17:43:25;;;;;;;18.83;11.23;;;;;;;-145.68;100.00;63218.00;10396867;28;20215;-76
2022/12/03 17:48:49;;;;;;;18.73;11.10;;;;;;;-145.68;100.00;63218.00;10411060;28;20700;-76
2022/12/03 17:54:12;;;;;;;18.10;9.37;;;;;;;-145.68;100.00;63218.00;10410116;28;20185;-75
2022/12/03 17:59:32;;;;;;;16.33;11.00;;;;;;;-145.68;100.00;63218.00;10426694;28;20187;-76
2022/12/03 18:10:45;;;;;;;18.77;10.77;;;;;;;-145.68;100.00;63218.00;10417485;28;20199;-77
2022/12/03 18:16:16;;;;;;;17.53;11.47;;;;;;;-145.68;100.00;63218.00;10401180;28;20254;-75
2022/12/03 18:21:57;;;;;;;18.30;10.57;;;;;;;-145.68;100.00;63218.00;10429978;28;20216;-75
2022/12/03 18:32:54;;;;;;;12.50;7.83;;;;;;;-145.68;100.00;63218.00;10398771;28;20395;-76
2022/12/03 18:37:55;;;;;;;17.27;11.10;;;;;;;-145.68;100.00;63218.00;10408542;28;20227;-75
2022/12/03 18:42:56;;;;;;;18.57;12.53;;;;;;;-145.68;100.00;63218.00;10408169;28;20627;-76
2022/12/03 18:47:56;;;;;;;18.40;10.57;;;;;;;-145.68;100.00;63218.00;10406858;28;20192;-76
2022/12/03 18:52:56;;;;;;;18.57;11.27;;;;;;;-145.68;100.00;63218.00;10407750;28;20335;-76
2022/12/03 18:57:57;;;;;;;18.33;11.97;;;;;;;-145.68;100.00;63218.00;10406648;28;20250;-76
2022/12/03 19:02:57;;;;;;;15.30;9.10;;;;;;;-145.68;100.00;63218.00;10407102;28;20291;-77
2022/12/03 19:07:57;;;;;;;14.03;8.83;;;;;;;-145.68;100.00;63218.00;10407074;28;20203;-77
2022/12/03 19:12:58;;;;;;;14.03;9.20;;;;;;;-145.68;100.00;63218.00;10407150;28;20650;-76
2022/12/03 19:17:58;;;;;;;14.23;8.63;;;;;;;-145.68;100.00;63218.00;10406354;28;20193;-76
2022/12/03 19:22:59;;;;;;;16.63;10.53;;;;;;;-145.68;100.00;63218.00;10408652;28;20582;-76
2022/12/03 19:27:59;;;;;;;16.33;10.43;;;;;;;-145.68;100.00;63218.00;10447540;28;20218;-76
2022/12/03 19:32:59;;;;;;;16.50;10.30;;;;;;;-145.68;100.00;63218.00;10447495;28;20195;-76
2022/12/03 19:38:00;;;;;;;15.10;10.03;;;;;;;-145.68;100.00;63218.00;10447512;28;20210;-76
2022/12/03 19:43:00;;;;;;;17.97;9.53;;;;;;;-145.68;100.00;63218.00;10447455;28;20222;-76
2022/12/03 19:48:01;;;;;;;13.70;8.00;;;;;;;-145.68;100.00;63218.00;10446942;28;20542;-77
2022/12/03 19:53:01;;;;;;;11.27;7.00;;;;;;;-145.68;100.00;63218.00;10447571;28;20176;-76
2022/12/03 19:58:01;;;;;;;14.93;9.00;;;;;;;-145.68;100.00;63218.00;10444243;28;20199;-76
2022/12/03 20:03:02;;;;;;;20.80;10.50;;;;;;;-145.68;100.00;63218.00;10422749;28;20697;-76
2022/12/03 20:08:03;;;;;;;11.30;8.43;;;;;;;-145.68;100.00;63218.00;10432263;28;20571;-76
2022/12/03 20:13:04;;;;;;;13.73;7.37;;;;;;;-145.68;100.00;63218.00;10415101;28;20203;-76
2022/12/03 20:18:04;;;;;;;12.80;8.20;;;;;;;-145.68;100.00;63218.00;10423640;28;20187;-76
2022/12/03 20:23:05;;;;;;;9.80;5.60;;;;;;;-145.68;100.00;63218.00;10432146;28;20230;-76
2022/12/03 20:28:05;;;;;;;7.17;3.93;;;;;;;-145.68;100.00;63218.00;10428977;28;20536;-76
2022/12/03 20:33:05;;;;;;;12.87;8.20;;;;;;;-145.68;100.00;63218.00;10431942;28;20184;-76
2022/12/03 20:38:06;;;;;;;12.93;8.43;;;;;;;-145.68;100.00;63218.00;10436639;28;20210;-76
2022/12/03 20:43:06;;;;;;;12.37;8.60;;;;;;;-145.68;100.00;63218.00;10431722;28;20219;-76
2022/12/03 20:48:07;;;;;;;12.60;8.47;;;;;;;-145.68;100.00;63218.00;10408407;28;20199;-76
2022/12/03 20:53:07;;;;;;;11.20;8.03;;;;;;;-145.68;100.00;63218.00;10438063;28;20210;-76
2022/12/03 20:58:07;;;;;;;12.70;6.53;;;;;;;-145.68;100.00;63218.00;10451926;28;20548;-76
2022/12/03 21:03:08;;;;;;;12.23;7.40;;;;;;;-145.68;100.00;63218.00;10430589;28;20227;-76
2022/12/03 21:08:09;;;;;;;11.17;6.67;;;;;;;-145.68;100.00;63218.00;10427395;28;20205;-76
2022/12/03 21:13:14;;;;;;;7.83;5.80;;;;;;;-145.68;100.00;63218.00;10435594;28;20186;-76
2022/12/03 21:18:16;;;;;;;8.20;5.73;;;;;;;-145.68;100.00;63218.00;10434419;28;20294;-76
2022/12/03 21:23:16;;;;;;;8.37;5.53;;;;;;;-145.68;100.00;63218.00;10452860;28;20599;-76
2022/12/03 21:28:17;;;;;;;8.23;5.63;;;;;;;-145.68;100.00;63218.00;10452720;28;20191;-76
2022/12/03 21:33:17;;;;;;;7.77;5.73;;;;;;;-145.68;100.00;63218.00;10453677;28;20253;-76
2022/12/03 21:38:17;;;;;;;7.20;5.27;;;;;;;-145.68;100.00;63218.00;10451365;28;20215;-76
2022/12/03 21:43:18;;;;;;;7.53;5.50;;;;;;;-145.68;100.00;63218.00;10453070;28;20220;-76
2022/12/03 21:48:19;;;;;;;8.80;5.70;;;;;;;-145.68;100.00;63218.00;10452479;28;20206;-75
2022/12/03 21:53:19;;;;;;;7.03;4.53;;;;;;;-145.68;100.00;63218.00;10451859;28;20191;-76
2022/12/03 21:58:19;;;;;;;8.13;5.57;;;;;;;-145.68;100.00;63218.00;10452211;28;20203;-76
2022/12/03 22:03:20;;;;;;;7.53;5.33;;;;;;;-145.68;100.00;63218.00;10434509;28;20218;-75
2022/12/03 22:08:20;;;;;;;9.03;5.80;;;;;;;-145.68;100.00;63218.00;10451954;28;20188;-76
2022/12/03 22:13:20;;;;;;;8.33;6.00;;;;;;;-145.68;100.00;63218.00;10451876;28;20188;-76
2022/12/03 22:18:21;;;;;;;9.13;6.03;;;;;;;-145.68;100.00;63218.00;10434130;28;20556;-75
2022/12/03 22:23:21;;;;;;;8.53;6.40;;;;;;;-145.68;100.00;63218.00;10451388;28;20234;-75
2022/12/03 22:28:22;;;;;;;8.13;5.40;;;;;;;-145.68;100.00;63218.00;10451702;28;20202;-75
2022/12/03 22:33:22;;;;;;;8.93;6.17;;;;;;;-145.68;100.00;63218.00;10452042;28;20191;-75
2022/12/03 22:38:23;;;;;;;11.20;6.13;;;;;;;-145.68;100.00;63218.00;10416868;28;20692;-76
2022/12/03 22:43:24;;;;;;;10.53;7.40;;;;;;;-145.68;100.00;63218.00;10451352;28;20607;-75
2022/12/03 22:48:25;;;;;;;10.77;7.23;;;;;;;-145.68;100.00;63218.00;10451091;28;20231;-75
2022/12/03 22:53:25;;;;;;;10.07;7.00;;;;;;;-145.68;100.00;63218.00;10416399;28;20602;-76